Sunday, July 22, 2018, 8:18 PM EDT
Back to Local

KCKB, Harrison/marion Regional

Location: Bridgeport, WV, United States Lat: 39.3
Local Time: 8:18 PM EDT ( 0:18 GMT) Lon: -80.217
Time Zone: US/Eastern Elev: 1204 ft

Show me the last for .
Show Decoded

2018-07-22 19:53 METAR KCKB 222353Z 07005KT 10SM FEW047 SCT060 23/20 A2981 RMK AO2 RAB2256E18
                 SLP080 P0000 60019 T02280200 10272 20217 53007 =
2018-07-22 18:53 METAR KCKB 222253Z 12004KT 10SM BKN075 BKN090 23/19 A2980 RMK AO2 SLP079
                 T02280194 =
2018-07-22 17:53 METAR KCKB 222153Z 00000KT 10SM FEW007 BKN050 OVC060 23/20 A2979 RMK AO2 RAE2059
                 SLP073 P0004 T02280200 =
2018-07-22 17:48 METAR KCKB 222148Z 00000KT 10SM SCT007 BKN050 23/19 A2979 RMK AO2 RAE2059 P0004
                 =
2018-07-22 17:40 METAR KCKB 222140Z 14003KT 10SM BKN007 BKN048 BKN055 23/20 A2978 RMK AO2 RAE2059
                 P0003 T02280200 =
2018-07-22 17:22 METAR KCKB 222122Z 08004KT 10SM SCT006 23/20 A2977 RMK AO2 LTG DSNT N AND NE
                 RAE2059 P0002 T02280200 =
2018-07-22 16:53 METAR KCKB 222053Z 00000KT 10SM -RA FEW075 SCT090 BKN110 22/19 A2976 RMK AO2 LTG
                 DSNT N SLP066 P0005 60015 T02220194 50000 =
2018-07-22 16:36 METAR KCKB 222036Z 36003KT 6SM -RA BR OVC095 22/20 A2977 RMK AO2 LTG DSNT N AND
                 NE P0004 T02220200 =
2018-07-22 16:25 METAR KCKB 222025Z 33003KT 2 1/2SM RA BR OVC090 22/20 A2977 RMK AO2 LTG DSNT NE
                 P0003 T02170200 =
2018-07-22 16:14 METAR KCKB 222014Z 00000KT 3SM RA BR FEW065 SCT080 OVC095 22/19 A2977 RMK AO2
                 LTG DSNT N AND NE P0002 T02170194 =
2018-07-22 15:53 METAR KCKB 221953Z 27005KT 2SM VCTS RA BR FEW013 BKN065 OVC090 22/20 A2978 RMK
                 AO2 LTG DSNT NE AND E SLP070 P0009 T02170200 =
2018-07-22 15:35 METAR KCKB 221935Z 22006KT 2SM VCTS RA BR SCT020 BKN034 OVC075 22/20 A2978 RMK
                 AO2 P0006 T02220200 =
2018-07-22 15:14 METAR KCKB 221914Z 24006KT 2SM +RA BR FEW029 BKN055 OVC075 22/20 A2977 RMK AO2
                 P0003 T02220200 =
2018-07-22 15:12 METAR KCKB 221912Z 23007KT 1 3/4SM +RA BR FEW029 BKN055 OVC070 22/20 A2977 RMK
                 AO2 P0002 T02220200 =
2018-07-22 14:53 METAR KCKB 221853Z 24008KT 3SM -RA SCT041 BKN055 OVC070 24/19 A2976 RMK AO2
                 RAB48 SLP065 P0001 T02440194 =
2018-07-22 13:53 METAR KCKB 221753Z VRB04KT 10SM CLR 27/19 A2976 RMK AO2 SLP064 60000 T02670189
                 10267 20194 58004 =
2018-07-22 12:53 METAR KCKB 221653Z 05004KT 10SM SCT110 24/18 A2977 RMK AO2 RAB02E27 SLP067 P0000
                 T02440183 =
2018-07-22 11:53 METAR KCKB 221553Z 00000KT 10SM OVC060 23/17 A2978 RMK AO2 SLP070 T02330172 =
2018-07-22 10:53 METAR KCKB 221453Z 14003KT 10SM FEW060 BKN075 24/18 A2978 RMK AO2 SLP068
                 T02390183 53007 =
2018-07-22 09:53 METAR KCKB 221353Z 00000KT 10SM BKN120 23/17 A2976 RMK AO2 SLP063 T02280172 =
2018-07-22 08:53 METAR KCKB 221253Z VRB03KT 10SM CLR 22/17 A2976 RMK AO2 SLP063 T02170172 =
2018-07-22 07:53 METAR KCKB 221153Z 10SM SCT014 19/16 A2976 RMK AO2 SLP061 T01940161 10194 20161
                 53010 =
2018-07-22 06:53 METAR KCKB 221053Z 00000KT 10SM SCT014 17/16 A2975 RMK AO2 SLP058 T01720156 =
2018-07-22 06:05 METAR KCKB 221005Z AUTO 16003KT 10SM BKN030 17/15 A2974 RMK AO2 T01670150 =
2018-07-22 05:53 METAR KCKB 220953Z AUTO 00000KT 10SM BKN029 17/15 A2973 RMK AO2 SLP053 T01670150
                 =
2018-07-22 05:26 METAR KCKB 220926Z AUTO 00000KT 10SM BKN027 17/15 A2973 RMK AO2 T01670150 =
2018-07-22 04:53 METAR KCKB 220853Z AUTO 00000KT 10SM CLR 16/14 A2972 RMK AO2 SLP051 T01610144
                 55008 =
2018-07-22 03:53 METAR KCKB 220753Z AUTO 02003KT 10SM CLR 17/14 A2972 RMK AO2 SLP048 T01670144 =
2018-07-22 02:53 METAR KCKB 220653Z 20003KT 10SM CLR 17/15 A2974 RMK AO2 SLP057 T01670150 =
2018-07-22 01:53 METAR KCKB 220553Z 05005KT 10SM FEW031 18/15 A2975 RMK AO2 SLP059 T01780150
                 10239 20167 58017 =
2018-07-22 00:53 METAR KCKB 220453Z 00000KT 10SM BKN048 18/15 A2977 RMK AO2 SLP067 T01830150
                 402890172 =
2018-07-21 23:53 METAR KCKB 220353Z 06003KT 10SM CLR 19/15 A2979 RMK AO2 SLP071 T01890150 =
2018-07-21 22:53 METAR KCKB 220253Z 07005KT 10SM CLR 20/15 A2980 RMK AO2 SLP077 T02000150 53003 =
2018-07-21 21:53 METAR KCKB 220153Z 08009KT 10SM CLR 21/16 A2980 RMK AO2 SLP075 T02060156 =
2018-07-21 20:53 METAR KCKB 220053Z 09008KT 10SM CLR 22/16 A2980 RMK AO2 SLP075 T02220161 =

Support USWX by starting your Amazon purchase here.